createdAt,value
2018-05-17T00:01:54.903Z,94.00
2018-05-17T00:04:22.382Z,94.00
2018-05-17T00:06:49.962Z,94.02
2018-05-17T00:09:17.443Z,93.98
2018-05-17T00:11:44.949Z,93.86
2018-05-17T00:14:12.435Z,93.83
2018-05-17T00:16:39.930Z,93.74
2018-05-17T00:19:07.399Z,93.64
2018-05-17T00:21:35.017Z,93.48
2018-05-17T00:24:02.488Z,93.35
2018-05-17T00:26:30.030Z,93.33
2018-05-17T00:28:57.499Z,93.24
2018-05-17T00:31:24.999Z,93.43
2018-05-17T00:33:52.598Z,93.50
2018-05-17T00:36:20.178Z,93.59
2018-05-17T00:38:47.663Z,93.59
2018-05-17T00:41:15.283Z,93.52
2018-05-17T00:43:42.848Z,93.84
2018-05-17T00:46:10.346Z,94.20
2018-05-17T00:48:37.819Z,94.16
2018-05-17T00:51:05.424Z,94.02
2018-05-17T00:53:32.991Z,94.05
2018-05-17T00:56:00.549Z,94.00
2018-05-17T00:58:28.099Z,94.13
2018-05-17T01:00:55.628Z,94.04
2018-05-17T01:03:23.098Z,94.30
2018-05-17T01:05:50.566Z,94.42
2018-05-17T01:08:18.078Z,94.54
2018-05-17T01:10:45.598Z,94.64
2018-05-17T01:13:13.154Z,94.64
2018-05-17T01:15:40.706Z,94.70
2018-05-17T01:18:08.194Z,94.91
2018-05-17T01:20:35.666Z,95.01
2018-05-17T01:23:03.164Z,94.98
2018-05-17T01:25:30.630Z,94.88
2018-05-17T01:28:02.302Z,94.91
2018-05-17T01:30:29.771Z,95.36
2018-05-17T01:32:57.262Z,95.57
2018-05-17T01:35:24.755Z,95.75
2018-05-17T01:38:04.110Z,95.94
2018-05-17T01:40:31.606Z,96.05
2018-05-17T01:42:59.226Z,96.01
2018-05-17T01:45:26.698Z,95.92
2018-05-17T01:47:54.196Z,95.84
2018-05-17T01:50:21.677Z,95.77
2018-05-17T01:52:49.262Z,95.72
2018-05-17T01:55:16.750Z,95.69
2018-05-17T01:57:44.238Z,95.66
2018-05-17T02:00:11.769Z,95.66
2018-05-17T02:02:39.261Z,95.59
2018-05-17T02:05:07.766Z,95.51
2018-05-17T02:07:35.259Z,95.55
2018-05-17T02:10:02.742Z,95.70
2018-05-17T02:12:30.357Z,95.84
2018-05-17T02:14:57.830Z,96.06
2018-05-17T02:17:25.349Z,96.28
2018-05-17T02:19:52.830Z,96.54
2018-05-17T02:22:20.338Z,96.64
2018-05-17T02:24:47.851Z,96.63
2018-05-17T02:27:15.343Z,96.57
2018-05-17T02:29:42.839Z,96.53
2018-05-17T02:32:10.335Z,96.17
2018-05-17T02:34:37.848Z,96.05
2018-05-17T02:37:05.346Z,96.14
2018-05-17T02:39:32.851Z,96.28
2018-05-17T02:42:00.335Z,96.31
2018-05-17T02:44:27.828Z,96.29
2018-05-17T02:46:55.294Z,96.24
2018-05-17T02:49:22.784Z,96.17
2018-05-17T02:51:50.294Z,96.08
2018-05-17T02:54:17.791Z,96.16
2018-05-17T02:56:45.314Z,95.90
2018-05-17T02:59:12.807Z,95.73
2018-05-17T03:01:40.329Z,95.54
2018-05-17T03:04:07.881Z,95.58
2018-05-17T03:06:35.449Z,95.61
2018-05-17T03:09:07.005Z,95.78
2018-05-17T03:11:34.483Z,95.91
2018-05-17T03:14:01.977Z,96.02
2018-05-17T03:16:29.459Z,96.10
2018-05-17T03:18:56.995Z,96.19
2018-05-17T03:21:24.546Z,96.25
2018-05-17T03:23:52.082Z,96.28
2018-05-17T03:26:19.567Z,96.09
2018-05-17T03:28:47.062Z,95.64
2018-05-17T03:31:14.542Z,94.84
2018-05-17T03:33:42.081Z,95.03
2018-05-17T03:36:09.570Z,94.89
2018-05-17T03:38:37.118Z,94.98
2018-05-17T03:41:04.615Z,94.86
2018-05-17T03:43:32.115Z,94.27
2018-05-17T03:45:59.621Z,93.99
2018-05-17T03:48:27.139Z,94.15
2018-05-17T03:50:54.699Z,94.36
2018-05-17T03:53:22.179Z,94.54
2018-05-17T03:55:49.712Z,94.77
2018-05-17T03:58:17.191Z,94.88
2018-05-17T04:00:56.750Z,94.91
2018-05-17T04:03:36.031Z,95.01
2018-05-17T04:06:15.345Z,95.06
2018-05-17T04:08:42.826Z,94.81
2018-05-17T04:11:10.398Z,94.72
2018-05-17T04:13:37.970Z,94.03
2018-05-17T04:16:05.525Z,93.54
2018-05-17T04:18:32.993Z,93.47
2018-05-17T04:21:04.122Z,93.45
2018-05-17T04:23:31.723Z,93.42
2018-05-17T04:25:59.218Z,93.55
2018-05-17T04:28:26.699Z,93.42
2018-05-17T04:30:54.259Z,93.37
2018-05-17T04:33:21.790Z,93.46
2018-05-17T04:35:49.419Z,93.45
2018-05-17T04:38:16.938Z,92.94
2018-05-17T04:40:44.450Z,92.06
2018-05-17T04:43:11.983Z,91.60
2018-05-17T04:45:39.514Z,91.41
2018-05-17T04:48:07.076Z,91.33
2018-05-17T04:50:34.567Z,91.28
2018-05-17T04:53:02.039Z,91.37
2018-05-17T04:55:29.654Z,91.28
2018-05-17T04:57:57.123Z,91.33
2018-05-17T05:00:24.624Z,91.56
2018-05-17T05:02:52.188Z,91.57
2018-05-17T05:05:19.611Z,91.03
2018-05-17T05:07:47.158Z,91.05
2018-05-17T05:10:14.708Z,90.93
2018-05-17T05:12:42.209Z,90.73
2018-05-17T05:15:09.724Z,90.95
2018-05-17T05:17:37.230Z,91.56
2018-05-17T05:20:04.740Z,91.97
2018-05-17T05:22:32.238Z,92.09
2018-05-17T05:24:59.711Z,91.92
2018-05-17T05:27:27.209Z,91.86
2018-05-17T05:29:54.763Z,91.65
2018-05-17T05:32:22.342Z,91.50
2018-05-17T05:34:49.903Z,91.12
2018-05-17T05:37:17.492Z,91.09
2018-05-17T05:39:45.022Z,90.37
2018-05-17T05:42:12.526Z,90.01
2018-05-17T05:44:40.021Z,90.10
2018-05-17T05:47:07.515Z,89.92
2018-05-17T05:49:35.064Z,89.97
2018-05-17T05:52:02.615Z,89.72
2018-05-17T05:54:30.115Z,89.79
2018-05-17T05:56:57.623Z,89.76
2018-05-17T05:59:25.095Z,90.05
2018-05-17T06:01:52.750Z,89.90
2018-05-17T06:04:20.304Z,89.83
2018-05-17T06:06:47.858Z,88.96
2018-05-17T06:09:15.330Z,88.58
2018-05-17T06:11:42.875Z,88.59
2018-05-17T06:14:16.302Z,88.01
2018-05-17T06:16:43.950Z,87.53
2018-05-17T06:19:11.422Z,86.69
2018-05-17T06:21:38.968Z,84.62
2018-05-17T06:24:06.536Z,83.93
2018-05-17T06:26:34.006Z,82.89
2018-05-17T06:29:01.538Z,82.71
2018-05-17T06:31:29.020Z,81.50
2018-05-17T06:33:56.555Z,79.32
2018-05-17T06:36:24.023Z,80.96
2018-05-17T06:38:51.517Z,81.39
2018-05-17T06:41:19.034Z,82.32
2018-05-17T06:43:46.530Z,81.64
2018-05-17T06:46:14.079Z,80.85
2018-05-17T06:48:41.610Z,81.58
2018-05-17T06:51:09.184Z,81.94
2018-05-17T06:53:36.680Z,82.91
2018-05-17T06:56:04.218Z,83.71
2018-05-17T06:58:31.749Z,82.44
2018-05-17T07:00:59.296Z,83.08
2018-05-17T07:03:26.735Z,83.43
2018-05-17T07:05:54.202Z,83.14
2018-05-17T07:08:21.790Z,82.81
2018-05-17T07:10:49.363Z,82.80
2018-05-17T07:13:17.020Z,83.07
2018-05-17T07:15:44.592Z,84.05
2018-05-17T07:18:12.458Z,85.09
2018-05-17T07:20:39.726Z,85.55
2018-05-17T07:23:07.222Z,85.61
2018-05-17T07:25:34.706Z,85.93
2018-05-17T07:28:02.202Z,86.48
2018-05-17T07:30:29.702Z,86.90
2018-05-17T07:32:57.278Z,86.78
2018-05-17T07:35:24.747Z,85.91
2018-05-17T07:37:52.332Z,85.88
2018-05-17T07:40:19.856Z,85.90
2018-05-17T07:42:47.337Z,86.17
2018-05-17T07:45:14.832Z,87.12
2018-05-17T07:47:42.363Z,86.58
2018-05-17T07:50:14.190Z,86.53
2018-05-17T07:52:41.691Z,85.59
2018-05-17T07:55:09.260Z,86.43
2018-05-17T07:57:36.763Z,85.70
2018-05-17T08:00:04.328Z,85.78
2018-05-17T08:02:31.812Z,85.44
2018-05-17T08:04:59.312Z,85.13
2018-05-17T08:07:26.886Z,83.97
2018-05-17T08:09:54.390Z,83.44
2018-05-17T08:12:22.823Z,83.45
2018-05-17T08:14:50.318Z,83.64
2018-05-17T08:17:17.802Z,82.94
2018-05-17T08:19:45.297Z,81.86
2018-05-17T08:22:12.812Z,81.31
2018-05-17T08:24:40.310Z,81.15
2018-05-17T08:27:07.782Z,82.63
2018-05-17T08:29:35.690Z,82.81
2018-05-17T08:32:03.220Z,80.90
2018-05-17T08:34:30.702Z,80.02
2018-05-17T08:36:58.235Z,79.66
2018-05-17T08:39:25.727Z,78.38
2018-05-17T08:41:53.203Z,78.60
2018-05-17T08:44:20.702Z,77.84
2018-05-17T08:46:48.170Z,79.02
2018-05-17T08:49:15.730Z,78.77
2018-05-17T08:51:43.199Z,79.96
2018-05-17T08:54:10.667Z,78.00
2018-05-17T08:56:38.163Z,77.29
2018-05-17T08:59:05.642Z,76.22
2018-05-17T09:01:33.130Z,76.16
2018-05-17T09:04:00.603Z,74.86
2018-05-17T09:06:28.127Z,72.14
2018-05-17T09:08:55.614Z,71.59
2018-05-17T09:11:23.107Z,70.51
2018-05-17T09:13:50.721Z,69.05
2018-05-17T09:16:18.131Z,67.53
2018-05-17T09:18:45.691Z,67.43
2018-05-17T09:21:13.183Z,67.84
2018-05-17T09:23:40.672Z,68.04
2018-05-17T09:26:08.210Z,70.16
2018-05-17T09:28:35.766Z,70.88
2018-05-17T09:31:03.323Z,71.29
2018-05-17T09:33:30.890Z,69.72
2018-05-17T09:35:58.383Z,67.37
2018-05-17T09:38:25.897Z,68.13
2018-05-17T09:40:53.413Z,65.81
2018-05-17T09:43:20.908Z,64.05
2018-05-17T09:45:48.406Z,63.28
2018-05-17T09:48:15.906Z,61.52
2018-05-17T09:50:43.452Z,58.97
2018-05-17T09:53:10.935Z,58.11
2018-05-17T09:55:38.518Z,59.62
2018-05-17T09:58:06.074Z,61.21
2018-05-17T10:00:33.575Z,59.50
2018-05-17T10:03:01.086Z,62.02
2018-05-17T10:05:28.571Z,63.00
2018-05-17T10:07:56.163Z,61.25
2018-05-17T10:10:23.870Z,60.62
2018-05-17T10:12:51.375Z,62.40
2018-05-17T10:15:18.863Z,62.17
2018-05-17T10:17:46.447Z,63.13
2018-05-17T10:20:13.987Z,62.65
2018-05-17T10:22:41.522Z,62.05
2018-05-17T10:25:08.994Z,61.45
2018-05-17T10:27:36.487Z,59.42
2018-05-17T10:30:03.977Z,57.22
2018-05-17T10:32:31.503Z,55.64
2018-05-17T10:34:58.991Z,54.63
2018-05-17T10:37:26.514Z,56.37
2018-05-17T10:39:54.107Z,55.09
2018-05-17T10:42:21.675Z,56.67
2018-05-17T10:44:49.150Z,56.64
2018-05-17T10:47:16.717Z,54.29
2018-05-17T10:49:44.159Z,54.70
2018-05-17T10:52:11.676Z,56.53
2018-05-17T10:54:39.171Z,55.67
2018-05-17T10:57:06.787Z,57.09
2018-05-17T10:59:34.226Z,59.31
2018-05-17T11:02:01.843Z,59.95
2018-05-17T11:04:29.451Z,58.96
2018-05-17T11:06:56.935Z,57.19
2018-05-17T11:09:24.434Z,59.55
2018-05-17T11:11:51.929Z,57.53
2018-05-17T11:14:19.466Z,58.95
2018-05-17T11:16:46.935Z,58.23
2018-05-17T11:19:14.456Z,59.63
2018-05-17T11:21:41.957Z,59.85
2018-05-17T11:24:09.447Z,61.10
2018-05-17T11:26:36.922Z,60.45
2018-05-17T11:29:04.417Z,62.96
2018-05-17T11:31:31.913Z,63.87
2018-05-17T11:33:59.402Z,63.89
2018-05-17T11:36:26.881Z,65.72
2018-05-17T11:38:54.474Z,65.70
2018-05-17T11:41:21.948Z,64.13
2018-05-17T11:43:49.511Z,62.01
2018-05-17T11:46:17.075Z,62.28
2018-05-17T11:48:44.630Z,60.25
2018-05-17T11:51:12.122Z,60.74
2018-05-17T11:53:39.619Z,59.40
2018-05-17T11:56:07.103Z,59.97
2018-05-17T11:58:34.613Z,61.31
2018-05-17T12:01:02.091Z,60.61
2018-05-17T12:03:29.687Z,61.15
2018-05-17T12:05:57.158Z,61.66
2018-05-17T12:08:24.656Z,60.84
2018-05-17T12:10:52.128Z,60.47
2018-05-17T12:13:19.628Z,61.63
2018-05-17T12:15:47.138Z,61.84
2018-05-17T12:18:14.631Z,61.98
2018-05-17T12:20:42.120Z,60.55
2018-05-17T12:23:09.666Z,59.50
2018-05-17T12:25:37.162Z,58.76
2018-05-17T12:28:04.671Z,57.01
2018-05-17T12:30:32.215Z,56.94
2018-05-17T12:32:59.686Z,55.83
2018-05-17T12:35:27.183Z,54.19
2018-05-17T12:37:54.797Z,55.42
2018-05-17T12:40:22.291Z,53.31
2018-05-17T12:42:49.904Z,51.89
2018-05-17T12:45:17.395Z,52.10
2018-05-17T12:47:44.941Z,51.83
2018-05-17T12:50:12.451Z,54.05
2018-05-17T12:52:39.939Z,51.36
2018-05-17T12:55:07.459Z,49.82
2018-05-17T12:57:35.003Z,45.50
2018-05-17T13:00:02.507Z,39.09
2018-05-17T13:02:30.013Z,37.42
2018-05-17T13:04:57.599Z,38.80
2018-05-17T13:07:25.148Z,40.73
2018-05-17T13:09:52.631Z,42.23
2018-05-17T13:12:20.151Z,45.66
2018-05-17T13:14:47.936Z,46.23
2018-05-17T13:17:15.451Z,47.29
2018-05-17T13:19:42.965Z,36.47
2018-05-17T13:22:10.515Z,32.93
2018-05-17T13:24:38.448Z,34.22
2018-05-17T13:27:05.919Z,39.17
2018-05-17T13:29:33.425Z,42.32
2018-05-17T13:32:00.900Z,45.19
2018-05-17T13:34:28.406Z,45.61
2018-05-17T13:36:55.894Z,45.92
2018-05-17T13:39:23.368Z,45.60
2018-05-17T13:41:50.883Z,47.42
2018-05-17T13:44:18.366Z,48.69
2018-05-17T13:46:45.885Z,50.67
2018-05-17T13:49:13.500Z,51.49
2018-05-17T13:51:40.963Z,50.16
2018-05-17T13:54:08.450Z,47.83
2018-05-17T13:56:35.950Z,48.23
2018-05-17T13:59:03.435Z,48.32
2018-05-17T14:01:30.934Z,48.70
2018-05-17T14:03:58.459Z,45.40
2018-05-17T14:06:25.954Z,47.29
2018-05-17T14:08:53.479Z,44.48
2018-05-17T14:11:20.979Z,44.11
2018-05-17T14:13:48.528Z,44.34
2018-05-17T14:16:16.034Z,43.00
2018-05-17T14:18:43.509Z,37.05
2018-05-17T14:21:10.997Z,37.67
2018-05-17T14:23:38.667Z,39.25
2018-05-17T14:26:06.173Z,42.08
2018-05-17T14:28:33.779Z,40.74
2018-05-17T14:31:01.294Z,38.98
2018-05-17T14:33:28.783Z,32.15
2018-05-17T14:35:56.254Z,28.23
2018-05-17T14:38:23.743Z,28.48
2018-05-17T14:40:53.702Z,30.29
2018-05-17T14:43:22.090Z,31.11
2018-05-17T14:45:49.865Z,32.87
2018-05-17T14:48:17.718Z,31.89
2018-05-17T14:50:45.194Z,32.03
2018-05-17T14:53:12.705Z,32.44
2018-05-17T14:55:40.174Z,30.53
2018-05-17T14:58:07.687Z,28.43
2018-05-17T15:00:35.219Z,27.36
2018-05-17T15:03:02.737Z,28.91
2018-05-17T15:05:30.212Z,32.38
2018-05-17T15:07:57.709Z,31.15
2018-05-17T15:10:25.179Z,32.08
2018-05-17T15:12:52.674Z,32.54
2018-05-17T15:15:20.162Z,37.60
2018-05-17T15:17:47.722Z,36.58
2018-05-17T15:20:15.266Z,36.01
2018-05-17T15:22:42.763Z,37.42
2018-05-17T15:25:10.345Z,42.39
2018-05-17T15:27:37.898Z,45.55
2018-05-17T15:30:06.139Z,45.86
2018-05-17T15:32:33.630Z,47.62
2018-05-17T15:35:01.179Z,47.47
2018-05-17T15:37:28.675Z,46.31
2018-05-17T15:39:56.178Z,47.71
2018-05-17T15:42:23.687Z,46.69
2018-05-17T15:44:55.260Z,46.95
2018-05-17T15:47:22.927Z,49.44
2018-05-17T15:49:50.435Z,49.65
2018-05-17T15:52:18.005Z,50.47
2018-05-17T15:54:45.530Z,50.09
2018-05-17T15:57:13.023Z,51.88
2018-05-17T15:59:40.550Z,52.57
2018-05-17T16:02:08.046Z,50.78
2018-05-17T16:04:36.429Z,51.19
2018-05-17T16:07:04.184Z,52.19
2018-05-17T16:09:31.806Z,53.25
2018-05-17T16:11:59.283Z,53.41
2018-05-17T16:14:26.949Z,53.90
2018-05-17T16:16:54.508Z,54.84
2018-05-17T16:19:22.054Z,55.20
2018-05-17T16:21:49.619Z,57.37
2018-05-17T16:24:18.295Z,61.10
2018-05-17T16:26:45.854Z,63.81
2018-05-17T16:29:13.370Z,64.37
2018-05-17T16:31:40.883Z,65.46
2018-05-17T16:34:08.376Z,63.51
2018-05-17T16:36:35.855Z,64.56
2018-05-17T16:39:03.487Z,63.75
2018-05-17T16:41:31.010Z,61.02
2018-05-17T16:43:58.607Z,61.61
2018-05-17T16:46:26.070Z,61.50
2018-05-17T16:48:53.635Z,61.72
2018-05-17T16:51:21.191Z,59.67
2018-05-17T16:53:48.685Z,58.49
2018-05-17T16:56:16.178Z,58.16
2018-05-17T16:58:43.710Z,52.23
2018-05-17T17:01:11.180Z,47.92
2018-05-17T17:03:38.658Z,43.39
2018-05-17T17:06:06.147Z,41.26
2018-05-17T17:08:33.641Z,40.97
2018-05-17T17:11:01.139Z,39.79
2018-05-17T17:13:28.603Z,40.44
2018-05-17T17:15:56.121Z,41.70
2018-05-17T17:18:23.606Z,44.62
2018-05-17T17:20:51.098Z,45.47
2018-05-17T17:23:18.600Z,46.64
2018-05-17T17:25:46.184Z,45.89
2018-05-17T17:28:13.764Z,46.98
2018-05-17T17:30:41.296Z,48.33
2018-05-17T17:33:08.771Z,48.31
2018-05-17T17:35:36.304Z,49.09
2018-05-17T17:38:03.810Z,47.60
2018-05-17T17:40:36.910Z,47.79
2018-05-17T17:43:04.447Z,51.04
2018-05-17T17:45:31.945Z,54.70
2018-05-17T17:47:59.534Z,57.47
2018-05-17T17:50:27.014Z,59.54
2018-05-17T17:52:54.492Z,59.74
2018-05-17T17:55:22.007Z,61.64
2018-05-17T17:57:49.519Z,62.91
2018-05-17T18:00:17.025Z,63.96
2018-05-17T18:02:44.482Z,64.28
2018-05-17T18:05:12.115Z,65.86
2018-05-17T18:07:39.529Z,66.83
2018-05-17T18:10:06.999Z,67.98
2018-05-17T18:12:34.601Z,67.96
2018-05-17T18:15:02.078Z,68.66
2018-05-17T18:17:29.574Z,69.50
2018-05-17T18:19:57.087Z,69.60
2018-05-17T18:22:24.594Z,69.86
2018-05-17T18:24:52.157Z,70.44
2018-05-17T18:27:20.706Z,70.61
2018-05-17T18:29:48.187Z,70.81
2018-05-17T18:32:15.679Z,72.04
2018-05-17T18:34:43.155Z,72.06
2018-05-17T18:37:10.651Z,72.34
2018-05-17T18:39:38.220Z,73.52
2018-05-17T18:42:05.767Z,74.57
2018-05-17T18:44:33.282Z,75.02
2018-05-17T18:47:00.774Z,75.96
2018-05-17T18:49:28.332Z,76.31
2018-05-17T18:51:55.892Z,76.53
2018-05-17T18:54:23.450Z,76.90
2018-05-17T18:56:51.016Z,77.74
2018-05-17T18:59:18.456Z,78.82
2018-05-17T19:01:46.027Z,79.71
2018-05-17T19:04:13.578Z,80.55
2018-05-17T19:09:13.957Z,81.93
2018-05-17T19:11:41.486Z,82.86
2018-05-17T19:14:09.028Z,83.66
2018-05-17T19:16:36.446Z,84.32
2018-05-17T19:19:03.950Z,84.81
2018-05-17T19:21:31.532Z,85.24
2018-05-17T19:23:59.034Z,84.97
2018-05-17T19:26:26.511Z,84.51
2018-05-17T19:28:54.090Z,83.10
2018-05-17T19:31:23.685Z,83.25
2018-05-17T19:33:51.232Z,83.68
2018-05-17T19:36:18.732Z,84.23
2018-05-17T19:38:46.239Z,83.82
2018-05-17T19:41:13.715Z,84.25
2018-05-17T19:43:41.215Z,84.18
2018-05-17T19:46:08.773Z,84.06
2018-05-17T19:48:36.329Z,83.70
2018-05-17T19:51:03.802Z,83.90
2018-05-17T19:53:31.306Z,83.93
2018-05-17T19:55:58.811Z,84.18
2018-05-17T19:58:26.304Z,84.51
2018-05-17T20:00:53.830Z,85.01
2018-05-17T20:03:21.475Z,85.54
2018-05-17T20:05:48.950Z,86.14
2018-05-17T20:08:16.481Z,86.40
2018-05-17T20:10:44.076Z,86.64
2018-05-17T20:13:11.570Z,87.02
2018-05-17T20:15:39.056Z,87.44
2018-05-17T20:18:06.622Z,87.63
2018-05-17T20:20:34.183Z,87.75
2018-05-17T20:23:01.675Z,88.12
2018-05-17T20:25:29.186Z,88.73
2018-05-17T20:27:56.758Z,88.90
2018-05-17T20:30:24.256Z,89.06
2018-05-17T20:32:51.779Z,89.02
2018-05-17T20:35:19.273Z,89.21
2018-05-17T20:37:46.747Z,89.70
2018-05-17T20:40:14.255Z,89.90
2018-05-17T20:42:41.744Z,90.15
2018-05-17T20:45:09.243Z,90.41
2018-05-17T20:47:36.752Z,90.40
2018-05-17T20:50:04.288Z,90.48
2018-05-17T20:52:31.777Z,90.60
2018-05-17T20:54:59.366Z,90.52
2018-05-17T20:57:26.842Z,90.50
2018-05-17T20:59:54.383Z,90.46
2018-05-17T21:02:21.854Z,90.32
2018-05-17T21:04:50.015Z,90.33
2018-05-17T21:07:17.535Z,90.41
2018-05-17T21:09:45.054Z,90.64
2018-05-17T21:12:12.527Z,90.83
2018-05-17T21:14:40.074Z,91.27
2018-05-17T21:17:07.545Z,91.34
2018-05-17T21:19:35.046Z,91.44
2018-05-17T21:22:02.523Z,91.26
2018-05-17T21:24:30.044Z,91.28
2018-05-17T21:26:57.538Z,91.47
2018-05-17T21:29:25.043Z,91.69
2018-05-17T21:31:52.669Z,91.83
2018-05-17T21:34:20.282Z,92.03
2018-05-17T21:36:47.779Z,92.22
2018-05-17T21:39:15.279Z,92.31
2018-05-17T21:41:42.859Z,92.37
2018-05-17T21:44:10.329Z,92.29
2018-05-17T21:46:37.818Z,92.39
2018-05-17T21:49:05.320Z,92.52
2018-05-17T21:51:32.851Z,92.66
2018-05-17T21:54:00.369Z,92.64
2018-05-17T21:56:27.895Z,92.58
2018-05-17T21:58:55.375Z,92.65
2018-05-17T22:01:22.871Z,92.69
2018-05-17T22:03:50.351Z,92.73
2018-05-17T22:06:17.870Z,92.75
2018-05-17T22:08:45.339Z,92.75
2018-05-17T22:11:12.834Z,92.66
2018-05-17T22:13:40.309Z,92.78
2018-05-17T22:16:07.803Z,92.81
2018-05-17T22:18:35.344Z,92.93
2018-05-17T22:21:02.883Z,92.83
2018-05-17T22:23:30.449Z,92.84
2018-05-17T22:26:03.960Z,92.95
2018-05-17T22:28:31.553Z,92.88
2018-05-17T22:30:59.125Z,92.91
2018-05-17T22:33:27.179Z,92.90
2018-05-17T22:35:54.703Z,92.93
2018-05-17T22:38:22.166Z,92.94
2018-05-17T22:40:49.634Z,93.11
2018-05-17T22:43:17.135Z,93.31
2018-05-17T22:45:44.611Z,93.34
2018-05-17T22:48:12.982Z,93.56
2018-05-17T22:50:40.458Z,93.66
2018-05-17T22:53:07.945Z,93.75
2018-05-17T22:55:35.410Z,93.50
2018-05-17T22:58:14.639Z,93.50
2018-05-17T23:00:42.107Z,93.59
2018-05-17T23:03:09.641Z,93.57
2018-05-17T23:05:37.112Z,93.56
2018-05-17T23:08:04.618Z,93.47
2018-05-17T23:10:32.093Z,93.56
2018-05-17T23:12:59.603Z,93.55
2018-05-17T23:15:27.075Z,93.54
2018-05-17T23:17:54.568Z,93.74
2018-05-17T23:20:22.083Z,93.77
2018-05-17T23:22:49.575Z,93.82
2018-05-17T23:25:17.039Z,93.73
2018-05-17T23:27:44.533Z,93.84
2018-05-17T23:30:12.019Z,93.85
2018-05-17T23:32:39.511Z,94.07
2018-05-17T23:35:06.979Z,94.38
2018-05-17T23:37:34.478Z,94.37
2018-05-17T23:40:13.970Z,94.18
2018-05-17T23:42:41.456Z,94.17
2018-05-17T23:45:08.935Z,94.09
2018-05-17T23:47:36.492Z,94.04
2018-05-17T23:50:03.922Z,93.97
2018-05-17T23:52:31.411Z,94.28
2018-05-17T23:54:58.883Z,94.54
2018-05-17T23:57:26.378Z,94.76
2018-05-17T23:59:53.842Z,94.97
